createdAt,value
2018-04-13T00:01:35.412Z,62.69
2018-04-13T00:04:04.726Z,62.62
2018-04-13T00:06:34.070Z,62.97
2018-04-13T00:09:03.390Z,63.02
2018-04-13T00:11:32.694Z,63.33
2018-04-13T00:14:02.059Z,63.75
2018-04-13T00:16:32.127Z,63.88
2018-04-13T00:19:01.442Z,64.22
2018-04-13T00:21:30.769Z,64.21
2018-04-13T00:24:00.898Z,64.33
2018-04-13T00:26:30.962Z,64.50
2018-04-13T00:29:01.036Z,64.66
2018-04-13T00:31:30.420Z,64.75
2018-04-13T00:33:59.718Z,64.80
2018-04-13T00:36:29.039Z,64.93
2018-04-13T00:38:59.124Z,64.99
2018-04-13T00:41:28.462Z,64.93
2018-04-13T00:43:57.767Z,65.09
2018-04-13T00:46:27.840Z,64.96
2018-04-13T00:48:57.181Z,64.93
2018-04-13T00:51:26.487Z,64.91
2018-04-13T00:53:55.820Z,64.57
2018-04-13T00:56:25.126Z,64.45
2018-04-13T00:58:54.471Z,64.25
2018-04-13T01:01:23.810Z,64.39
2018-04-13T01:03:53.885Z,64.84
2018-04-13T01:06:24.227Z,64.26
2018-04-13T01:08:53.532Z,64.05
2018-04-13T01:11:22.838Z,64.13
2018-04-13T01:13:52.185Z,64.28
2018-04-13T01:16:21.487Z,64.36
2018-04-13T01:18:50.790Z,64.38
2018-04-13T01:21:20.133Z,64.48
2018-04-13T01:23:49.433Z,64.39
2018-04-13T01:26:18.771Z,64.41
2018-04-13T01:28:48.846Z,64.35
2018-04-13T01:31:18.153Z,64.39
2018-04-13T01:33:47.492Z,64.58
2018-04-13T01:36:16.817Z,64.90
2018-04-13T01:38:46.900Z,64.74
2018-04-13T01:41:16.223Z,64.73
2018-04-13T01:43:46.312Z,65.12
2018-04-13T01:46:15.648Z,65.22
2018-04-13T01:48:45.727Z,65.36
2018-04-13T01:51:15.058Z,65.27
2018-04-13T01:53:45.174Z,65.38
2018-04-13T01:56:14.515Z,65.55
2018-04-13T01:58:43.818Z,65.75
2018-04-13T02:01:13.131Z,65.85
2018-04-13T02:03:42.446Z,65.97
2018-04-13T02:06:12.528Z,66.07
2018-04-13T02:08:42.622Z,66.20
2018-04-13T02:11:11.947Z,66.37
2018-04-13T02:13:42.039Z,66.55
2018-04-13T02:16:11.393Z,66.74
2018-04-13T02:18:40.699Z,67.01
2018-04-13T02:21:10.011Z,67.96
2018-04-13T02:23:39.339Z,68.04
2018-04-13T02:26:08.650Z,67.90
2018-04-13T02:28:37.946Z,67.89
2018-04-13T02:31:07.297Z,67.83
2018-04-13T02:33:36.608Z,67.59
2018-04-13T02:36:05.912Z,67.37
2018-04-13T02:38:35.242Z,67.41
2018-04-13T02:41:04.557Z,67.46
2018-04-13T02:43:33.887Z,67.44
2018-04-13T02:46:03.316Z,67.47
2018-04-13T02:48:33.422Z,67.56
2018-04-13T02:51:03.529Z,67.74
2018-04-13T02:53:32.834Z,67.80
2018-04-13T02:56:02.163Z,67.88
2018-04-13T02:58:32.265Z,68.15
2018-04-13T03:01:02.340Z,68.62
2018-04-13T03:03:31.675Z,69.42
2018-04-13T03:06:01.009Z,69.83
2018-04-13T03:08:30.330Z,69.80
2018-04-13T03:10:59.678Z,69.56
2018-04-13T03:13:29.039Z,69.15
2018-04-13T03:15:58.362Z,68.77
2018-04-13T03:18:27.679Z,68.57
2018-04-13T03:20:56.978Z,68.47
2018-04-13T03:23:26.323Z,68.40
2018-04-13T03:25:56.398Z,68.82
2018-04-13T03:31:01.191Z,68.99
2018-04-13T03:33:32.244Z,69.27
2018-04-13T03:36:01.563Z,70.56
2018-04-13T03:38:30.870Z,70.87
2018-04-13T03:41:00.213Z,70.77
2018-04-13T03:43:29.551Z,70.37
2018-04-13T03:45:58.885Z,70.91
2018-04-13T03:48:28.218Z,71.08
2018-04-13T03:50:57.547Z,71.11
2018-04-13T03:53:27.632Z,70.63
2018-04-13T03:55:56.957Z,70.34
2018-04-13T03:58:27.869Z,70.21
2018-04-13T04:00:57.218Z,70.03
2018-04-13T04:03:27.295Z,69.77
2018-04-13T04:05:56.644Z,69.91
2018-04-13T04:08:26.714Z,69.85
2018-04-13T04:10:56.051Z,70.21
2018-04-13T04:13:25.362Z,70.43
2018-04-13T04:15:55.456Z,71.04
2018-04-13T04:18:24.797Z,71.19
2018-04-13T04:21:11.852Z,70.86
2018-04-13T04:24:00.634Z,70.62
2018-04-13T04:26:50.182Z,70.80
2018-04-13T04:29:19.527Z,72.20
2018-04-13T04:31:48.839Z,72.50
2018-04-13T04:34:18.938Z,72.63
2018-04-13T04:36:48.273Z,72.28
2018-04-13T04:39:18.384Z,72.18
2018-04-13T04:41:47.705Z,72.31
2018-04-13T04:44:17.027Z,71.84
2018-04-13T04:46:46.372Z,71.63
2018-04-13T04:49:15.677Z,71.16
2018-04-13T04:51:45.039Z,71.28
2018-04-13T04:54:14.375Z,71.33
2018-04-13T04:56:43.713Z,71.27
2018-04-13T04:59:13.807Z,71.53
2018-04-13T05:01:43.790Z,71.53
2018-04-13T05:04:13.108Z,71.59
2018-04-13T05:06:42.410Z,71.57
2018-04-13T05:09:11.740Z,72.01
2018-04-13T05:11:41.085Z,72.61
2018-04-13T05:14:10.388Z,73.08
2018-04-13T05:16:39.734Z,72.95
2018-04-13T05:19:09.057Z,73.02
2018-04-13T05:21:38.386Z,72.96
2018-04-13T05:24:07.721Z,72.66
2018-04-13T05:26:37.025Z,72.38
2018-04-13T05:29:06.326Z,71.94
2018-04-13T05:31:35.663Z,71.64
2018-04-13T05:34:05.096Z,71.42
2018-04-13T05:36:34.402Z,71.23
2018-04-13T05:39:03.760Z,71.29
2018-04-13T05:41:33.099Z,71.29
2018-04-13T05:44:03.196Z,71.38
2018-04-13T05:46:32.526Z,71.48
2018-04-13T05:49:01.835Z,71.48
2018-04-13T05:51:31.151Z,71.41
2018-04-13T05:54:00.500Z,71.26
2018-04-13T05:56:29.820Z,71.03
2018-04-13T05:58:59.935Z,70.90
2018-04-13T06:01:29.250Z,70.84
2018-04-13T06:03:59.374Z,70.86
2018-04-13T06:06:29.456Z,71.05
2018-04-13T06:08:58.817Z,70.93
2018-04-13T06:11:28.147Z,70.87
2018-04-13T06:13:57.463Z,70.89
2018-04-13T06:16:26.811Z,70.87
2018-04-13T06:18:56.891Z,70.72
2018-04-13T06:21:26.215Z,70.71
2018-04-13T06:23:56.298Z,70.53
2018-04-13T06:26:25.603Z,70.37
2018-04-13T06:28:54.946Z,70.17
2018-04-13T06:31:25.035Z,70.06
2018-04-13T06:33:54.369Z,69.81
2018-04-13T06:36:23.700Z,69.71
2018-04-13T06:38:53.017Z,69.33
2018-04-13T06:41:22.356Z,69.12
2018-04-13T06:43:51.844Z,68.86
2018-04-13T06:46:21.154Z,68.52
2018-04-13T06:48:50.547Z,67.81
2018-04-13T06:51:19.847Z,67.38
2018-04-13T06:53:49.142Z,66.69
2018-04-13T06:56:18.475Z,65.62
2018-04-13T06:58:47.803Z,65.02
2018-04-13T07:01:18.014Z,64.52
2018-04-13T07:03:47.297Z,63.12
2018-04-13T07:06:16.652Z,61.62
2018-04-13T07:08:45.995Z,60.18
2018-04-13T07:11:15.311Z,59.49
2018-04-13T07:13:45.154Z,59.04
2018-04-13T07:16:14.457Z,59.17
2018-04-13T07:18:45.345Z,58.70
2018-04-13T07:21:14.694Z,58.85
2018-04-13T07:23:45.282Z,58.49
2018-04-13T07:26:14.612Z,58.59
2018-04-13T07:28:43.951Z,58.50
2018-04-13T07:31:13.297Z,58.10
2018-04-13T07:33:42.631Z,57.88
2018-04-13T07:36:11.969Z,57.73
2018-04-13T07:38:41.266Z,57.92
2018-04-13T07:41:10.594Z,58.02
2018-04-13T07:43:39.945Z,57.96
2018-04-13T07:46:10.044Z,57.95
2018-04-13T07:48:39.349Z,57.91
2018-04-13T07:51:09.306Z,57.37
2018-04-13T07:53:38.050Z,57.12
2018-04-13T07:56:07.411Z,57.17
2018-04-13T07:58:36.752Z,56.69
2018-04-13T08:01:06.133Z,55.92
2018-04-13T08:03:35.452Z,55.62
2018-04-13T08:06:04.788Z,55.54
2018-04-13T08:08:34.124Z,55.28
2018-04-13T08:11:03.460Z,55.42
2018-04-13T08:13:32.797Z,55.41
2018-04-13T08:16:02.910Z,55.41
2018-04-13T08:18:32.214Z,55.13
2018-04-13T08:21:01.547Z,54.79
2018-04-13T08:23:30.857Z,54.43
2018-04-13T08:26:00.178Z,54.39
2018-04-13T08:28:29.502Z,54.31
2018-04-13T08:30:58.830Z,54.05
2018-04-13T08:33:28.147Z,52.93
2018-04-13T08:35:58.235Z,52.62
2018-04-13T08:38:27.570Z,51.16
2018-04-13T08:40:57.674Z,50.57
2018-04-13T08:43:27.053Z,49.63
2018-04-13T08:45:56.341Z,48.61
2018-04-13T08:48:25.674Z,47.34
2018-04-13T08:50:55.035Z,45.75
2018-04-13T08:53:24.387Z,44.81
2018-04-13T08:55:53.675Z,44.66
2018-04-13T08:58:23.009Z,43.91
2018-04-13T09:00:53.096Z,43.19
2018-04-13T09:03:22.435Z,43.60
2018-04-13T09:05:52.506Z,43.68
2018-04-13T09:08:21.828Z,44.11
2018-04-13T09:10:51.174Z,44.65
2018-04-13T09:13:21.279Z,44.70
2018-04-13T09:15:51.380Z,43.68
2018-04-13T09:18:20.699Z,43.82
2018-04-13T09:20:50.901Z,43.89
2018-04-13T09:23:20.178Z,44.50
2018-04-13T09:25:50.227Z,44.77
2018-04-13T09:28:19.545Z,44.69
2018-04-13T09:30:48.907Z,44.72
2018-04-13T09:33:18.224Z,44.15
2018-04-13T09:35:48.211Z,44.47
2018-04-13T09:38:17.540Z,44.63
2018-04-13T09:40:46.958Z,44.76
2018-04-13T09:43:16.286Z,44.65
2018-04-13T09:45:46.369Z,44.78
2018-04-13T09:48:15.703Z,45.50
2018-04-13T09:50:45.804Z,45.73
2018-04-13T09:53:15.149Z,45.98
2018-04-13T09:55:44.461Z,46.12
2018-04-13T09:58:13.760Z,46.47
2018-04-13T10:00:43.113Z,46.61
2018-04-13T10:03:17.945Z,46.68
2018-04-13T10:05:47.301Z,47.18
2018-04-13T10:08:16.624Z,46.99
2018-04-13T10:10:45.935Z,46.89
2018-04-13T10:13:16.611Z,47.34
2018-04-13T10:15:46.722Z,47.74
2018-04-13T10:18:16.040Z,47.74
2018-04-13T10:20:46.141Z,47.62
2018-04-13T10:23:15.480Z,47.83
2018-04-13T10:25:44.798Z,47.79
2018-04-13T10:28:14.108Z,47.92
2018-04-13T10:30:43.453Z,48.05
2018-04-13T10:33:13.541Z,48.07
2018-04-13T10:35:42.891Z,48.29
2018-04-13T10:38:12.978Z,48.68
2018-04-13T10:40:42.290Z,48.89
2018-04-13T10:43:11.618Z,49.14
2018-04-13T10:45:41.711Z,48.75
2018-04-13T10:48:11.043Z,49.13
2018-04-13T10:50:41.118Z,48.70
2018-04-13T10:53:10.479Z,48.56
2018-04-13T10:55:40.579Z,48.82
2018-04-13T10:58:10.649Z,49.65
2018-04-13T11:00:39.966Z,49.87
2018-04-13T11:03:09.326Z,49.91
2018-04-13T11:05:38.651Z,49.85
2018-04-13T11:08:08.721Z,49.65
2018-04-13T11:10:38.039Z,47.67
2018-04-13T11:13:08.150Z,47.12
2018-04-13T11:15:38.250Z,46.50
2018-04-13T11:18:07.623Z,46.10
2018-04-13T11:20:36.970Z,45.73
2018-04-13T11:23:06.283Z,45.56
2018-04-13T11:25:36.398Z,45.66
2018-04-13T11:28:05.742Z,45.76
2018-04-13T11:30:35.044Z,45.68
2018-04-13T11:33:04.381Z,45.68
2018-04-13T11:35:33.693Z,46.03
2018-04-13T11:38:03.035Z,45.99
2018-04-13T11:40:32.349Z,45.66
2018-04-13T11:43:01.676Z,45.94
2018-04-13T11:45:31.028Z,45.90
2018-04-13T11:48:01.109Z,45.42
2018-04-13T11:50:30.457Z,44.81
2018-04-13T11:53:00.595Z,44.91
2018-04-13T11:55:29.888Z,45.57
2018-04-13T11:58:00.042Z,46.06
2018-04-13T12:00:29.532Z,46.14
2018-04-13T12:02:59.733Z,46.09
2018-04-13T12:08:05.504Z,45.96
2018-04-13T12:10:35.673Z,45.88
2018-04-13T12:13:05.078Z,46.33
2018-04-13T12:15:34.499Z,46.29
2018-04-13T12:18:03.943Z,46.57
2018-04-13T12:20:34.133Z,46.69
2018-04-13T12:23:03.617Z,46.85
2018-04-13T12:25:33.008Z,46.43
2018-04-13T12:28:02.495Z,46.11
2018-04-13T12:30:31.878Z,45.45
2018-04-13T12:33:03.657Z,44.94
2018-04-13T12:35:34.114Z,44.49
2018-04-13T12:38:04.756Z,44.66
2018-04-13T12:40:35.814Z,44.36
2018-04-13T12:43:05.144Z,44.18
2018-04-13T12:45:35.237Z,44.42
2018-04-13T12:48:04.571Z,44.56
2018-04-13T12:50:34.661Z,44.91
2018-04-13T12:53:04.048Z,45.24
2018-04-13T12:55:34.152Z,45.36
2018-04-13T12:58:03.450Z,45.68
2018-04-13T13:00:32.777Z,45.90
2018-04-13T13:03:02.128Z,45.90
2018-04-13T13:05:32.204Z,46.06
2018-04-13T13:08:01.561Z,45.90
2018-04-13T13:10:31.638Z,45.91
2018-04-13T13:13:01.020Z,45.89
2018-04-13T13:15:30.372Z,46.14
2018-04-13T13:18:00.467Z,46.85
2018-04-13T13:20:29.779Z,46.94
2018-04-13T13:22:59.121Z,47.15
2018-04-13T13:25:28.451Z,47.52
2018-04-13T13:27:57.773Z,47.66
2018-04-13T13:30:27.118Z,47.43
2018-04-13T13:32:57.195Z,47.09
2018-04-13T13:35:26.556Z,47.41
2018-04-13T13:37:55.859Z,47.37
2018-04-13T13:40:25.167Z,46.91
2018-04-13T13:42:54.540Z,46.86
2018-04-13T13:45:23.843Z,46.99
2018-04-13T13:47:53.933Z,47.06
2018-04-13T13:50:23.273Z,47.21
2018-04-13T13:52:53.343Z,47.29
2018-04-13T13:55:22.764Z,47.19
2018-04-13T13:57:52.119Z,47.13
2018-04-13T14:00:21.975Z,47.04
2018-04-13T14:02:51.283Z,47.59
2018-04-13T14:05:20.617Z,47.67
2018-04-13T14:07:50.705Z,47.78
2018-04-13T14:10:20.025Z,47.81
2018-04-13T14:12:49.379Z,47.83
2018-04-13T14:15:18.684Z,47.55
2018-04-13T14:17:48.015Z,47.56
2018-04-13T14:20:17.315Z,47.95
2018-04-13T14:22:46.660Z,48.11
2018-04-13T14:25:16.750Z,48.17
2018-04-13T14:27:46.083Z,48.46
2018-04-13T14:30:16.189Z,48.97
2018-04-13T14:32:45.511Z,49.10
2018-04-13T14:35:14.831Z,49.24
2018-04-13T14:37:44.163Z,49.55
2018-04-13T14:40:13.520Z,49.80
2018-04-13T14:42:45.069Z,50.19
2018-04-13T14:45:15.154Z,50.31
2018-04-13T14:47:44.489Z,50.55
2018-04-13T14:50:14.611Z,50.75
2018-04-13T14:52:44.702Z,50.92
2018-04-13T14:55:14.034Z,51.43
2018-04-13T14:57:44.132Z,51.74
2018-04-13T15:00:13.460Z,51.84
2018-04-13T15:02:43.553Z,51.86
2018-04-13T15:05:12.878Z,52.03
2018-04-13T15:07:42.227Z,52.07
2018-04-13T15:10:11.627Z,52.11
2018-04-13T15:12:41.700Z,52.31
2018-04-13T15:15:11.028Z,52.27
2018-04-13T15:17:40.342Z,52.46
2018-04-13T15:20:10.753Z,52.62
2018-04-13T15:22:40.833Z,52.66
2018-04-13T15:25:10.156Z,52.73
2018-04-13T15:27:39.571Z,52.78
2018-04-13T15:30:09.708Z,52.78
2018-04-13T15:32:39.161Z,52.75
2018-04-13T15:35:08.512Z,52.98
2018-04-13T15:37:37.894Z,52.83
2018-04-13T15:40:07.995Z,52.93
2018-04-13T15:42:38.221Z,53.16
2018-04-13T15:45:07.592Z,53.01
2018-04-13T15:47:37.019Z,53.05
2018-04-13T15:50:06.351Z,53.24
2018-04-13T15:52:36.543Z,53.23
2018-04-13T15:55:05.882Z,53.35
2018-04-13T15:57:35.970Z,53.30
2018-04-13T16:00:05.423Z,53.43
2018-04-13T16:02:35.505Z,53.37
2018-04-13T16:05:04.848Z,53.26
2018-04-13T16:07:34.207Z,53.50
2018-04-13T16:10:03.531Z,53.43
2018-04-13T16:12:33.636Z,53.71
2018-04-13T16:15:03.041Z,53.66
2018-04-13T16:17:32.358Z,53.87
2018-04-13T16:20:02.455Z,53.98
2018-04-13T16:22:31.754Z,54.10
2018-04-13T16:25:01.090Z,54.15
2018-04-13T16:27:31.210Z,53.98
2018-04-13T16:30:01.342Z,54.17
2018-04-13T16:32:31.420Z,54.08
2018-04-13T16:35:00.758Z,53.91
2018-04-13T16:37:30.886Z,53.93
2018-04-13T16:40:01.022Z,53.59
2018-04-13T16:42:30.379Z,53.38
2018-04-13T16:44:59.752Z,53.50
2018-04-13T16:47:29.062Z,53.53
2018-04-13T16:49:58.405Z,53.30
2018-04-13T16:52:27.718Z,53.11
2018-04-13T16:54:57.815Z,53.01
2018-04-13T16:57:27.149Z,53.05
2018-04-13T16:59:56.459Z,53.11
2018-04-13T17:02:25.782Z,53.15
2018-04-13T17:04:55.164Z,53.46
2018-04-13T17:07:24.490Z,53.56
2018-04-13T17:09:53.802Z,53.76
2018-04-13T17:12:23.114Z,53.84
2018-04-13T17:14:52.451Z,53.90
2018-04-13T17:17:22.569Z,53.84
2018-04-13T17:19:51.920Z,54.08
2018-04-13T17:22:21.221Z,54.18
2018-04-13T17:24:50.535Z,54.42
2018-04-13T17:27:19.891Z,54.58
2018-04-13T17:29:49.975Z,54.67
2018-04-13T17:32:19.318Z,54.83
2018-04-13T17:34:49.429Z,54.84
2018-04-13T17:37:19.544Z,55.04
2018-04-13T17:39:48.899Z,55.03
2018-04-13T17:42:18.227Z,55.07
2018-04-13T17:44:47.566Z,55.36
2018-04-13T17:47:17.750Z,55.22
2018-04-13T17:49:50.437Z,55.29
2018-04-13T17:52:20.432Z,55.57
2018-04-13T17:54:49.780Z,55.65
2018-04-13T17:57:19.928Z,55.64
2018-04-13T17:59:49.247Z,55.79
2018-04-13T18:02:18.595Z,55.92
2018-04-13T18:04:47.948Z,55.99
2018-04-13T18:07:17.301Z,56.01
2018-04-13T18:09:46.669Z,56.18
2018-04-13T18:12:15.984Z,56.24
2018-04-13T18:14:45.376Z,56.44
2018-04-13T18:17:14.729Z,56.40
2018-04-13T18:19:44.858Z,56.72
2018-04-13T18:22:14.208Z,56.75
2018-04-13T18:24:43.564Z,56.93
2018-04-13T18:27:14.105Z,56.87
2018-04-13T18:29:43.486Z,56.91
2018-04-13T18:32:13.575Z,57.00
2018-04-13T18:34:42.943Z,56.95
2018-04-13T18:37:12.291Z,57.04
2018-04-13T18:39:41.627Z,57.22
2018-04-13T18:42:15.851Z,57.28
2018-04-13T18:44:49.935Z,57.31
2018-04-13T18:47:22.655Z,57.54
2018-04-13T18:49:52.008Z,57.50
2018-04-13T18:52:21.331Z,57.56
2018-04-13T18:54:50.675Z,57.63
2018-04-13T18:57:20.068Z,57.72
2018-04-13T18:59:49.384Z,57.61
2018-04-13T19:02:19.101Z,57.79
2018-04-13T19:04:48.430Z,57.77
2018-04-13T19:07:17.790Z,57.79
2018-04-13T19:09:47.920Z,57.86
2018-04-13T19:12:17.246Z,58.07
2018-04-13T19:14:46.599Z,58.08
2018-04-13T19:17:15.966Z,58.12
2018-04-13T19:19:45.279Z,58.38
2018-04-13T19:22:14.613Z,57.95
2018-04-13T19:24:44.725Z,57.77
2018-04-13T19:27:14.808Z,57.54
2018-04-13T19:29:44.155Z,57.50
2018-04-13T19:32:14.295Z,57.41
2018-04-13T19:34:44.396Z,57.52
2018-04-13T19:37:14.543Z,57.41
2018-04-13T19:39:43.873Z,57.40
2018-04-13T19:42:13.216Z,57.31
2018-04-13T19:44:42.567Z,57.38
2018-04-13T19:47:11.892Z,57.36
2018-04-13T19:49:41.250Z,57.39
2018-04-13T19:52:11.785Z,57.41
2018-04-13T19:54:41.094Z,57.46
2018-04-13T19:57:10.421Z,57.53
2018-04-13T19:59:39.784Z,57.62
2018-04-13T20:02:09.311Z,57.74
2018-04-13T20:04:38.628Z,57.69
2018-04-13T20:07:08.005Z,57.80
2018-04-13T20:09:37.311Z,58.16
2018-04-13T20:12:06.932Z,58.60
2018-04-13T20:14:36.273Z,58.57
2018-04-13T20:17:05.614Z,58.83
2018-04-13T20:19:35.715Z,59.14
2018-04-13T20:22:05.095Z,58.95
2018-04-13T20:24:34.416Z,58.97
2018-04-13T20:27:03.755Z,59.41
2018-04-13T20:29:33.088Z,59.26
2018-04-13T20:32:02.422Z,59.19
2018-04-13T20:34:31.742Z,59.16
2018-04-13T20:37:01.867Z,59.26
2018-04-13T20:39:31.960Z,59.37
2018-04-13T20:42:01.315Z,59.86
2018-04-13T20:44:30.657Z,59.75
2018-04-13T20:47:00.757Z,59.77
2018-04-13T20:49:30.115Z,60.18
2018-04-13T20:52:00.247Z,60.12
2018-04-13T20:54:30.375Z,60.23
2018-04-13T20:56:59.678Z,60.28
2018-04-13T20:59:29.013Z,60.48
2018-04-13T21:01:58.350Z,60.36
2018-04-13T21:04:27.687Z,60.64
2018-04-13T21:06:57.020Z,60.56
2018-04-13T21:09:27.053Z,60.96
2018-04-13T21:11:56.376Z,61.32
2018-04-13T21:14:25.695Z,61.26
2018-04-13T21:16:55.817Z,61.76
2018-04-13T21:19:25.361Z,61.89
2018-04-13T21:21:54.675Z,61.83
2018-04-13T21:24:24.035Z,61.66
2018-04-13T21:26:54.154Z,61.59
2018-04-13T21:29:24.246Z,61.60
2018-04-13T21:31:53.613Z,61.78
2018-04-13T21:34:23.562Z,61.53
2018-04-13T21:36:52.989Z,61.55
2018-04-13T21:39:23.061Z,61.76
2018-04-13T21:41:52.409Z,61.84
2018-04-13T21:44:21.735Z,61.76
2018-04-13T21:46:51.046Z,61.63
2018-04-13T21:49:20.447Z,61.63
2018-04-13T21:51:49.754Z,61.95
2018-04-13T21:54:19.087Z,61.83
2018-04-13T21:56:48.410Z,62.04
2018-04-13T21:59:17.736Z,61.99
2018-04-13T22:01:47.842Z,62.27
2018-04-13T22:04:17.162Z,62.46
2018-04-13T22:06:47.252Z,62.69
2018-04-13T22:09:16.578Z,63.00
2018-04-13T22:11:46.665Z,63.36
2018-04-13T22:14:33.827Z,63.23
2018-04-13T22:17:03.904Z,63.44
2018-04-13T22:19:33.235Z,63.71
2018-04-13T22:22:02.641Z,63.47
2018-04-13T22:24:31.955Z,63.81
2018-04-13T22:27:02.246Z,63.59
2018-04-13T22:29:31.554Z,63.67
2018-04-13T22:32:00.862Z,63.74
2018-04-13T22:34:30.210Z,64.00
2018-04-13T22:36:59.518Z,63.86
2018-04-13T22:39:28.848Z,64.04
2018-04-13T22:41:58.178Z,64.14
2018-04-13T22:44:27.502Z,64.21
2018-04-13T22:46:57.569Z,64.01
2018-04-13T22:49:28.107Z,64.27
2018-04-13T22:51:57.419Z,64.15
2018-04-13T22:54:26.777Z,64.45
2018-04-13T22:56:56.083Z,64.61
2018-04-13T22:59:25.426Z,64.34
2018-04-13T23:01:54.776Z,64.11
2018-04-13T23:04:24.843Z,64.04
2018-04-13T23:06:54.178Z,64.10
2018-04-13T23:09:24.267Z,63.82
2018-04-13T23:11:53.587Z,63.78
2018-04-13T23:14:23.599Z,63.95
2018-04-13T23:16:52.956Z,63.84
2018-04-13T23:19:22.262Z,64.03
2018-04-13T23:21:52.431Z,63.79
2018-04-13T23:24:21.765Z,64.02
2018-04-13T23:26:51.840Z,64.20
2018-04-13T23:29:21.198Z,64.24
2018-04-13T23:31:50.511Z,64.15
2018-04-13T23:34:21.090Z,64.35
2018-04-13T23:36:50.423Z,64.35
2018-04-13T23:39:20.516Z,64.40
2018-04-13T23:41:49.901Z,64.49
2018-04-13T23:44:19.238Z,64.47
2018-04-13T23:46:48.581Z,64.61
2018-04-13T23:49:17.952Z,64.59
2018-04-13T23:51:47.268Z,64.52
2018-04-13T23:54:17.349Z,64.73
2018-04-13T23:56:46.703Z,64.71
2018-04-13T23:59:16.035Z,64.86
